createdAt,value
2018-04-15T00:02:01.705Z,72.60
2018-04-15T00:04:29.940Z,73.00
2018-04-15T00:06:58.134Z,73.60
2018-04-15T00:09:26.298Z,74.10
2018-04-15T00:11:54.461Z,75.00
2018-04-15T00:14:22.938Z,75.10
2018-04-15T00:16:51.113Z,74.10
2018-04-15T00:19:19.338Z,74.30
2018-04-15T00:21:47.497Z,74.10
2018-04-15T00:24:15.747Z,73.50
2018-04-15T00:26:43.939Z,73.30
2018-04-15T00:29:12.144Z,73.50
2018-04-15T00:31:40.310Z,74.20
2018-04-15T00:34:08.554Z,73.80
2018-04-15T00:36:36.722Z,74.00
2018-04-15T00:39:05.685Z,75.50
2018-04-15T00:41:34.614Z,75.10
2018-04-15T00:44:03.092Z,75.10
2018-04-15T00:46:31.258Z,74.90
2018-04-15T00:48:59.438Z,75.50
2018-04-15T00:51:27.614Z,75.10
2018-04-15T00:54:09.338Z,74.60
2018-04-15T00:56:37.511Z,74.50
2018-04-15T00:59:05.678Z,74.10
2018-04-15T01:01:33.828Z,74.70
2018-04-15T01:04:02.006Z,74.90
2018-04-15T01:06:30.149Z,74.50
2018-04-15T01:08:59.091Z,76.50
2018-04-15T01:11:27.237Z,76.40
2018-04-15T01:13:56.165Z,77.40
2018-04-15T01:16:24.306Z,77.40
2018-04-15T01:18:52.479Z,77.00
2018-04-15T01:21:20.614Z,76.20
2018-04-15T01:23:49.665Z,76.60
2018-04-15T01:26:17.815Z,76.60
2018-04-15T01:28:46.752Z,77.20
2018-04-15T01:31:14.949Z,77.20
2018-04-15T01:33:44.095Z,77.70
2018-04-15T01:36:12.259Z,77.70
2018-04-15T01:38:40.398Z,78.20
2018-04-15T01:41:08.641Z,78.40
2018-04-15T01:43:37.599Z,78.60
2018-04-15T01:46:05.769Z,78.50
2018-04-15T01:48:33.911Z,78.50
2018-04-15T01:51:02.171Z,79.10
2018-04-15T01:53:31.119Z,80.20
2018-04-15T01:55:59.292Z,80.00
2018-04-15T01:58:27.443Z,80.00
2018-04-15T02:00:56.378Z,79.70
2018-04-15T02:03:24.563Z,79.60
2018-04-15T02:05:52.801Z,78.70
2018-04-15T02:08:21.706Z,80.00
2018-04-15T02:10:49.916Z,80.00
2018-04-15T02:13:19.529Z,79.90
2018-04-15T02:15:47.685Z,81.40
2018-04-15T02:18:15.872Z,82.00
2018-04-15T02:20:44.139Z,81.40
2018-04-15T02:23:12.336Z,81.20
2018-04-15T02:25:40.486Z,81.10
2018-04-15T02:28:08.676Z,81.30
2018-04-15T02:30:36.842Z,81.20
2018-04-15T02:33:05.795Z,81.90
2018-04-15T02:35:33.974Z,81.90
2018-04-15T02:38:02.123Z,81.10
2018-04-15T02:40:31.059Z,81.70
2018-04-15T02:43:00.022Z,80.90
2018-04-15T02:45:28.964Z,81.50
2018-04-15T02:47:57.106Z,81.50
2018-04-15T02:50:25.307Z,81.60
2018-04-15T02:52:54.411Z,81.60
2018-04-15T02:55:22.570Z,82.10
2018-04-15T02:57:50.752Z,82.10
2018-04-15T03:00:18.923Z,81.50
2018-04-15T03:02:47.878Z,82.00
2018-04-15T03:05:16.037Z,82.00
2018-04-15T03:07:44.970Z,82.00
2018-04-15T03:10:13.123Z,82.00
2018-04-15T03:12:41.434Z,81.90
2018-04-15T03:15:09.606Z,82.60
2018-04-15T03:17:37.795Z,82.70
2018-04-15T03:20:05.930Z,83.30
2018-04-15T03:22:34.230Z,82.40
2018-04-15T03:25:02.406Z,83.30
2018-04-15T03:27:30.564Z,83.40
2018-04-15T03:29:58.717Z,83.00
2018-04-15T03:32:26.899Z,83.50
2018-04-15T03:34:55.042Z,82.10
2018-04-15T03:37:24.097Z,83.70
2018-04-15T03:39:52.275Z,82.80
2018-04-15T03:42:21.243Z,83.60
2018-04-15T03:44:49.391Z,83.50
2018-04-15T03:47:18.329Z,83.40
2018-04-15T03:49:46.474Z,83.40
2018-04-15T03:52:15.470Z,83.40
2018-04-15T03:54:43.618Z,83.90
2018-04-15T03:57:12.638Z,83.80
2018-04-15T03:59:40.785Z,83.80
2018-04-15T04:02:09.812Z,84.20
2018-04-15T04:04:37.970Z,84.00
2018-04-15T04:07:06.179Z,84.50
2018-04-15T04:09:34.353Z,84.10
2018-04-15T04:12:03.327Z,83.60
2018-04-15T04:14:31.485Z,83.40
2018-04-15T04:16:59.625Z,84.50
2018-04-15T04:19:39.963Z,85.10
2018-04-15T04:25:26.391Z,85.00
2018-04-15T04:27:54.558Z,85.60
2018-04-15T04:30:22.708Z,84.30
2018-04-15T04:32:51.699Z,85.30
2018-04-15T04:35:19.879Z,84.50
2018-04-15T04:37:48.042Z,83.90
2018-04-15T04:40:16.200Z,84.30
2018-04-15T04:42:45.214Z,84.30
2018-04-15T04:45:13.375Z,85.00
2018-04-15T04:47:41.545Z,85.50
2018-04-15T04:50:09.712Z,84.90
2018-04-15T04:52:38.726Z,84.70
2018-04-15T04:55:06.874Z,84.50
2018-04-15T04:57:35.922Z,85.50
2018-04-15T05:00:04.066Z,85.50
2018-04-15T05:02:33.197Z,85.90
2018-04-15T05:05:01.339Z,85.80
2018-04-15T05:07:29.502Z,85.50
2018-04-15T05:09:57.712Z,85.70
2018-04-15T05:12:26.702Z,86.20
2018-04-15T05:14:54.874Z,86.10
2018-04-15T05:17:23.026Z,86.00
2018-04-15T05:19:51.195Z,86.20
2018-04-15T05:22:20.232Z,86.80
2018-04-15T05:24:48.398Z,86.10
2018-04-15T05:27:16.559Z,85.60
2018-04-15T05:29:44.739Z,85.30
2018-04-15T05:32:13.721Z,85.30
2018-04-15T05:34:41.892Z,85.30
2018-04-15T05:37:10.051Z,85.40
2018-04-15T05:39:38.222Z,85.40
2018-04-15T05:42:07.219Z,85.00
2018-04-15T05:44:35.430Z,85.10
2018-04-15T05:47:03.598Z,85.10
2018-04-15T05:49:31.765Z,84.70
2018-04-15T05:52:00.777Z,85.80
2018-04-15T05:54:29.048Z,85.70
2018-04-15T05:56:57.194Z,85.50
2018-04-15T05:59:25.371Z,84.40
2018-04-15T06:01:54.838Z,85.40
2018-04-15T06:04:23.778Z,85.60
2018-04-15T06:06:51.967Z,85.50
2018-04-15T06:09:20.234Z,85.60
2018-04-15T06:11:49.200Z,86.00
2018-04-15T06:14:17.402Z,85.70
2018-04-15T06:16:45.591Z,86.10
2018-04-15T06:19:13.766Z,86.30
2018-04-15T06:21:42.733Z,86.00
2018-04-15T06:24:10.917Z,86.00
2018-04-15T06:26:39.075Z,85.60
2018-04-15T06:29:07.227Z,85.70
2018-04-15T06:31:36.261Z,84.60
2018-04-15T06:34:04.438Z,84.50
2018-04-15T06:36:32.717Z,84.20
2018-04-15T06:39:00.876Z,83.90
2018-04-15T06:41:29.985Z,83.30
2018-04-15T06:43:58.150Z,83.30
2018-04-15T06:46:26.350Z,83.30
2018-04-15T06:48:54.610Z,83.00
2018-04-15T06:51:23.638Z,81.80
2018-04-15T06:53:51.789Z,81.80
2018-04-15T06:56:19.966Z,81.60
2018-04-15T06:58:48.129Z,82.10
2018-04-15T07:01:16.319Z,81.20
2018-04-15T07:03:44.465Z,80.70
2018-04-15T07:06:12.964Z,80.60
2018-04-15T07:08:41.190Z,81.90
2018-04-15T07:11:09.382Z,81.00
2018-04-15T07:13:37.542Z,80.20
2018-04-15T07:16:05.731Z,80.20
2018-04-15T07:18:33.882Z,80.00
2018-04-15T07:21:02.918Z,80.50
2018-04-15T07:23:31.069Z,80.40
2018-04-15T07:25:59.267Z,79.30
2018-04-15T07:28:27.430Z,79.00
2018-04-15T07:30:55.612Z,79.70
2018-04-15T07:33:24.543Z,80.40
2018-04-15T07:35:53.514Z,79.40
2018-04-15T07:38:21.658Z,79.40
2018-04-15T07:40:49.859Z,77.60
2018-04-15T07:43:18.031Z,78.40
2018-04-15T07:45:46.182Z,76.90
2018-04-15T07:48:14.371Z,76.40
2018-04-15T07:50:42.529Z,81.10
2018-04-15T07:53:10.724Z,82.80
2018-04-15T07:55:38.881Z,81.00
2018-04-15T07:58:07.071Z,80.00
2018-04-15T08:00:35.235Z,82.20
2018-04-15T08:03:03.431Z,78.20
2018-04-15T08:05:31.601Z,77.20
2018-04-15T08:07:59.779Z,77.00
2018-04-15T08:10:28.745Z,72.70
2018-04-15T08:12:56.935Z,72.70
2018-04-15T08:15:25.120Z,73.50
2018-04-15T08:17:53.323Z,73.30
2018-04-15T08:20:21.515Z,73.30
2018-04-15T08:22:49.719Z,74.80
2018-04-15T08:25:17.899Z,73.50
2018-04-15T08:27:46.083Z,72.40
2018-04-15T08:30:14.262Z,72.80
2018-04-15T08:32:42.455Z,74.60
2018-04-15T08:35:10.642Z,73.50
2018-04-15T08:37:38.842Z,69.80
2018-04-15T08:40:07.035Z,69.60
2018-04-15T08:42:35.240Z,69.10
2018-04-15T08:45:03.419Z,69.60
2018-04-15T08:47:31.627Z,72.80
2018-04-15T08:49:59.836Z,73.60
2018-04-15T08:52:28.036Z,70.00
2018-04-15T08:54:56.217Z,69.80
2018-04-15T08:57:24.419Z,70.90
2018-04-15T08:59:52.614Z,70.10
2018-04-15T09:02:20.806Z,70.30
2018-04-15T09:04:48.999Z,69.80
2018-04-15T09:07:17.188Z,69.00
2018-04-15T09:09:46.165Z,69.10
2018-04-15T09:12:14.333Z,69.10
2018-04-15T09:14:42.538Z,69.00
2018-04-15T09:17:11.481Z,68.70
2018-04-15T09:19:39.697Z,68.70
2018-04-15T09:22:07.878Z,67.10
2018-04-15T09:24:36.860Z,67.10
2018-04-15T09:27:05.049Z,67.10
2018-04-15T09:29:33.312Z,66.10
2018-04-15T09:32:01.464Z,65.80
2018-04-15T09:34:29.664Z,64.00
2018-04-15T09:36:58.616Z,64.70
2018-04-15T09:39:26.870Z,64.70
2018-04-15T09:41:55.139Z,64.80
2018-04-15T09:44:23.346Z,63.10
2018-04-15T09:46:51.540Z,63.70
2018-04-15T09:49:20.544Z,62.00
2018-04-15T09:51:48.737Z,61.90
2018-04-15T09:54:17.698Z,62.10
2018-04-15T09:56:45.883Z,62.10
2018-04-15T09:59:14.133Z,61.70
2018-04-15T10:01:42.276Z,60.70
2018-04-15T10:04:10.478Z,60.00
2018-04-15T10:06:38.671Z,60.20
2018-04-15T10:09:06.895Z,60.20
2018-04-15T10:11:35.076Z,60.20
2018-04-15T10:14:03.285Z,59.90
2018-04-15T10:16:31.467Z,60.40
2018-04-15T10:19:00.282Z,60.10
2018-04-15T10:21:28.511Z,60.30
2018-04-15T10:23:56.734Z,60.60
2018-04-15T10:26:25.678Z,60.20
2018-04-15T10:28:53.899Z,60.20
2018-04-15T10:31:22.874Z,62.00
2018-04-15T10:33:51.067Z,61.90
2018-04-15T10:36:20.041Z,59.20
2018-04-15T10:38:49.011Z,59.30
2018-04-15T10:41:17.240Z,59.30
2018-04-15T10:43:46.191Z,60.10
2018-04-15T10:46:14.398Z,60.10
2018-04-15T10:48:42.602Z,59.50
2018-04-15T10:51:10.833Z,59.40
2018-04-15T10:53:39.020Z,56.70
2018-04-15T10:56:08.003Z,57.90
2018-04-15T10:58:36.186Z,57.90
2018-04-15T11:01:05.165Z,59.00
2018-04-15T11:03:33.347Z,58.80
2018-04-15T11:06:01.554Z,56.50
2018-04-15T11:08:29.767Z,54.20
2018-04-15T11:10:57.974Z,55.60
2018-04-15T11:13:26.939Z,55.60
2018-04-15T11:15:55.909Z,57.30
2018-04-15T11:18:24.132Z,57.40
2018-04-15T11:20:52.346Z,56.90
2018-04-15T11:23:20.523Z,55.90
2018-04-15T11:25:48.735Z,56.90
2018-04-15T11:28:16.947Z,55.40
2018-04-15T11:30:45.917Z,54.80
2018-04-15T11:33:14.113Z,54.80
2018-04-15T11:35:42.368Z,54.40
2018-04-15T11:38:10.555Z,53.20
2018-04-15T11:40:39.522Z,52.80
2018-04-15T11:43:07.823Z,52.70
2018-04-15T11:45:36.038Z,53.30
2018-04-15T11:48:04.241Z,52.30
2018-04-15T11:50:33.235Z,52.40
2018-04-15T11:53:01.453Z,52.30
2018-04-15T11:55:30.407Z,51.20
2018-04-15T11:57:58.644Z,51.20
2018-04-15T12:00:26.836Z,51.10
2018-04-15T12:02:55.038Z,50.70
2018-04-15T12:05:23.229Z,51.70
2018-04-15T12:07:52.201Z,51.20
2018-04-15T12:10:20.396Z,51.20
2018-04-15T12:12:48.611Z,51.80
2018-04-15T12:15:16.798Z,52.10
2018-04-15T12:17:45.008Z,50.80
2018-04-15T12:20:13.182Z,51.20
2018-04-15T12:22:41.391Z,50.60
2018-04-15T12:25:10.334Z,50.00
2018-04-15T12:27:38.550Z,50.00
2018-04-15T12:30:07.512Z,50.80
2018-04-15T12:32:35.809Z,50.80
2018-04-15T12:35:03.988Z,50.20
2018-04-15T12:37:32.186Z,50.10
2018-04-15T12:40:00.375Z,49.90
2018-04-15T12:42:28.596Z,51.10
2018-04-15T12:44:56.783Z,52.40
2018-04-15T12:47:25.760Z,51.20
2018-04-15T12:49:53.955Z,51.20
2018-04-15T12:52:23.063Z,51.30
2018-04-15T12:54:52.019Z,51.40
2018-04-15T12:57:21.025Z,51.20
2018-04-15T12:59:49.219Z,51.20
2018-04-15T13:02:18.185Z,50.40
2018-04-15T13:04:46.371Z,50.30
2018-04-15T13:07:14.575Z,51.00
2018-04-15T13:09:42.754Z,50.90
2018-04-15T13:12:10.962Z,50.30
2018-04-15T13:14:39.121Z,49.60
2018-04-15T13:17:07.318Z,50.80
2018-04-15T13:19:35.501Z,50.90
2018-04-15T13:22:03.679Z,49.90
2018-04-15T13:24:31.882Z,51.00
2018-04-15T13:27:00.813Z,50.00
2018-04-15T13:29:29.030Z,50.00
2018-04-15T13:31:57.207Z,50.40
2018-04-15T13:34:26.195Z,50.80
2018-04-15T13:36:54.406Z,50.70
2018-04-15T13:39:22.719Z,50.30
2018-04-15T13:41:50.913Z,50.50
2018-04-15T13:44:19.132Z,49.40
2018-04-15T13:46:47.814Z,49.30
2018-04-15T13:49:16.873Z,50.10
2018-04-15T13:51:45.044Z,50.20
2018-04-15T13:54:13.234Z,49.60
2018-04-15T13:56:42.179Z,50.20
2018-04-15T13:59:10.390Z,50.10
2018-04-15T14:01:39.347Z,50.30
2018-04-15T14:04:07.558Z,50.30
2018-04-15T14:06:36.522Z,51.00
2018-04-15T14:09:04.820Z,50.90
2018-04-15T14:11:33.669Z,50.10
2018-04-15T14:14:01.886Z,50.00
2018-04-15T14:16:30.107Z,50.00
2018-04-15T14:18:58.314Z,50.80
2018-04-15T14:21:26.510Z,50.60
2018-04-15T14:23:55.492Z,49.10
2018-04-15T14:26:24.436Z,49.50
2018-04-15T14:28:52.976Z,49.40
2018-04-15T14:31:21.950Z,50.90
2018-04-15T14:33:50.219Z,50.70
2018-04-15T14:36:18.427Z,50.70
2018-04-15T14:38:46.615Z,50.10
2018-04-15T14:41:14.817Z,48.40
2018-04-15T14:43:43.006Z,48.60
2018-04-15T14:46:11.285Z,49.30
2018-04-15T14:48:39.487Z,48.30
2018-04-15T14:51:08.475Z,49.00
2018-04-15T14:53:36.641Z,49.00
2018-04-15T14:56:04.847Z,49.90
2018-04-15T14:58:33.034Z,51.20
2018-04-15T15:01:01.243Z,45.80
2018-04-15T15:03:29.422Z,39.10
2018-04-15T15:05:57.627Z,40.60
2018-04-15T15:08:26.570Z,40.30
2018-04-15T15:10:54.785Z,40.30
2018-04-15T15:13:23.736Z,37.90
2018-04-15T15:15:51.943Z,37.80
2018-04-15T15:18:20.135Z,38.10
2018-04-15T15:20:49.107Z,43.60
2018-04-15T15:23:17.295Z,42.50
2018-04-15T15:25:46.259Z,32.60
2018-04-15T15:28:14.476Z,32.50
2018-04-15T15:30:42.635Z,30.80
2018-04-15T15:33:11.585Z,34.20
2018-04-15T15:35:39.818Z,33.80
2018-04-15T15:38:07.994Z,38.00
2018-04-15T15:40:36.194Z,41.40
2018-04-15T15:43:04.366Z,44.10
2018-04-15T15:45:32.579Z,45.20
2018-04-15T15:48:01.562Z,44.30
2018-04-15T15:50:29.739Z,44.30
2018-04-15T15:52:57.952Z,44.90
2018-04-15T15:55:26.249Z,44.80
2018-04-15T15:57:54.463Z,44.80
2018-04-15T16:00:22.651Z,44.90
2018-04-15T16:02:50.855Z,46.10
2018-04-15T16:05:19.141Z,47.50
2018-04-15T16:07:47.397Z,47.60
2018-04-15T16:10:16.214Z,47.20
2018-04-15T16:12:45.165Z,48.50
2018-04-15T16:15:13.644Z,48.70
2018-04-15T16:17:41.829Z,48.70
2018-04-15T16:20:10.783Z,49.00
2018-04-15T16:22:38.986Z,48.90
2018-04-15T16:25:08.667Z,49.40
2018-04-15T16:27:36.899Z,49.50
2018-04-15T16:30:05.074Z,49.80
2018-04-15T16:32:33.280Z,50.80
2018-04-15T16:35:01.485Z,50.70
2018-04-15T16:37:31.199Z,51.30
2018-04-15T16:39:59.385Z,51.30
2018-04-15T16:42:28.363Z,51.10
2018-04-15T16:44:56.699Z,51.10
2018-04-15T16:47:24.907Z,51.90
2018-04-15T16:49:54.603Z,51.50
2018-04-15T16:52:22.815Z,51.50
2018-04-15T16:54:51.082Z,52.20
2018-04-15T16:57:19.278Z,52.40
2018-04-15T16:59:47.534Z,53.50
2018-04-15T17:02:15.730Z,52.70
2018-04-15T17:04:43.963Z,52.60
2018-04-15T17:07:12.196Z,52.40
2018-04-15T17:09:40.425Z,52.40
2018-04-15T17:12:08.611Z,53.20
2018-04-15T17:14:36.875Z,53.90
2018-04-15T17:17:05.056Z,55.10
2018-04-15T17:19:33.326Z,55.50
2018-04-15T17:22:01.515Z,55.50
2018-04-15T17:24:29.770Z,55.90
2018-04-15T17:26:59.469Z,55.40
2018-04-15T17:29:27.678Z,55.30
2018-04-15T17:31:56.626Z,55.10
2018-04-15T17:34:24.943Z,55.10
2018-04-15T17:36:53.899Z,54.80
2018-04-15T17:39:22.198Z,54.80
2018-04-15T17:41:50.522Z,55.10
2018-04-15T17:44:18.859Z,56.60
2018-04-15T17:46:47.136Z,58.20
2018-04-15T17:49:15.416Z,59.90
2018-04-15T17:51:44.367Z,62.40
2018-04-15T17:54:12.571Z,62.40
2018-04-15T17:56:40.751Z,62.20
2018-04-15T17:59:09.722Z,61.90
2018-04-15T18:01:37.932Z,61.90
2018-04-15T18:04:06.160Z,60.70
2018-04-15T18:06:34.353Z,62.40
2018-04-15T18:09:02.563Z,65.30
2018-04-15T18:11:30.822Z,66.10
2018-04-15T18:13:59.116Z,67.70
2018-04-15T18:16:27.375Z,62.40
2018-04-15T18:18:56.354Z,61.30
2018-04-15T18:21:24.557Z,60.90
2018-04-15T18:23:52.795Z,60.10
2018-04-15T18:26:20.984Z,60.30
2018-04-15T18:28:49.198Z,60.70
2018-04-15T18:31:17.386Z,61.50
2018-04-15T18:33:45.707Z,61.30
2018-04-15T18:36:15.541Z,62.10
2018-04-15T18:38:44.530Z,65.10
2018-04-15T18:41:12.749Z,64.50
2018-04-15T18:43:42.005Z,66.40
2018-04-15T18:46:10.977Z,66.40
2018-04-15T18:48:39.178Z,67.00
2018-04-15T18:51:08.146Z,63.40
2018-04-15T18:53:36.390Z,63.40
2018-04-15T18:56:04.606Z,64.00
2018-04-15T18:58:34.302Z,64.10
2018-04-15T19:01:02.507Z,64.10
2018-04-15T19:03:30.876Z,64.30
2018-04-15T19:05:59.891Z,65.30
2018-04-15T19:08:28.251Z,65.30
2018-04-15T19:10:56.544Z,65.90
2018-04-15T19:13:24.750Z,67.70
2018-04-15T19:15:52.958Z,69.00
2018-04-15T19:18:21.153Z,69.70
2018-04-15T19:20:50.848Z,70.90
2018-04-15T19:23:19.127Z,70.80
2018-04-15T19:25:47.323Z,71.50
2018-04-15T19:28:15.575Z,71.80
2018-04-15T19:30:43.779Z,71.60
2018-04-15T19:33:11.991Z,71.00
2018-04-15T19:35:40.190Z,70.70
2018-04-15T19:38:08.378Z,68.60
2018-04-15T19:40:36.574Z,67.00
2018-04-15T19:43:04.890Z,65.90
2018-04-15T19:45:33.098Z,65.40
2018-04-15T19:48:01.278Z,65.50
2018-04-15T19:50:30.259Z,67.40
2018-04-15T19:52:58.507Z,67.40
2018-04-15T19:55:26.714Z,68.60
2018-04-15T19:57:54.891Z,68.40
2018-04-15T20:00:23.179Z,71.10
2018-04-15T20:02:51.563Z,70.80
2018-04-15T20:05:20.665Z,70.00
2018-04-15T20:07:48.819Z,70.00
2018-04-15T20:10:17.019Z,70.70
2018-04-15T20:12:45.247Z,72.00
2018-04-15T20:15:13.423Z,72.60
2018-04-15T20:17:41.711Z,74.10
2018-04-15T20:20:09.882Z,74.90
2018-04-15T20:22:38.166Z,73.90
2018-04-15T20:25:06.346Z,72.40
2018-04-15T20:27:34.539Z,70.90
2018-04-15T20:30:03.495Z,70.10
2018-04-15T20:32:31.763Z,70.00
2018-04-15T20:34:59.938Z,69.80
2018-04-15T20:37:28.214Z,70.30
2018-04-15T20:39:56.387Z,69.20
2018-04-15T20:42:25.411Z,70.60
2018-04-15T20:44:53.582Z,70.60
2018-04-15T20:47:21.761Z,71.70
2018-04-15T20:49:49.910Z,71.90
2018-04-15T20:52:18.931Z,73.20
2018-04-15T20:54:47.104Z,73.20
2018-04-15T20:57:15.280Z,75.90
2018-04-15T20:59:43.547Z,75.90
2018-04-15T21:02:12.651Z,76.30
2018-04-15T21:04:40.815Z,76.30
2018-04-15T21:07:08.988Z,75.20
2018-04-15T21:09:37.134Z,75.10
2018-04-15T21:12:06.146Z,75.90
2018-04-15T21:14:34.340Z,75.80
2018-04-15T21:17:02.618Z,76.30
2018-04-15T21:19:30.768Z,76.10
2018-04-15T21:21:59.774Z,76.10
2018-04-15T21:24:27.952Z,76.00
2018-04-15T21:26:56.159Z,75.80
2018-04-15T21:29:24.299Z,76.20
2018-04-15T21:31:53.259Z,76.60
2018-04-15T21:34:21.440Z,76.20
2018-04-15T21:36:49.600Z,74.90
2018-04-15T21:39:18.540Z,75.60
2018-04-15T21:41:47.607Z,76.40
2018-04-15T21:44:15.787Z,76.40
2018-04-15T21:46:43.955Z,76.60
2018-04-15T21:49:12.135Z,77.80
2018-04-15T21:51:41.127Z,77.10
2018-04-15T21:54:09.362Z,77.10
2018-04-15T21:56:37.475Z,77.50
2018-04-15T21:59:05.663Z,76.60
2018-04-15T22:01:34.630Z,75.50
2018-04-15T22:04:02.843Z,75.40
2018-04-15T22:06:30.989Z,76.50
2018-04-15T22:08:59.286Z,75.30
2018-04-15T22:11:40.272Z,76.20
2018-04-15T22:14:08.447Z,75.80
2018-04-15T22:16:36.600Z,75.90
2018-04-15T22:19:04.772Z,76.20
2018-04-15T22:21:33.942Z,77.00
2018-04-15T22:24:02.114Z,77.00
2018-04-15T22:26:30.274Z,76.80
2018-04-15T22:28:59.230Z,74.20
2018-04-15T22:31:28.210Z,74.20
2018-04-15T22:33:56.491Z,74.20
2018-04-15T22:36:24.667Z,74.10
2018-04-15T22:38:52.904Z,73.60
2018-04-15T22:41:21.093Z,73.50
2018-04-15T22:43:49.287Z,73.80
2018-04-15T22:46:17.450Z,73.50
2018-04-15T22:48:45.610Z,73.60
2018-04-15T22:51:14.730Z,74.10
2018-04-15T22:53:42.896Z,74.10
2018-04-15T22:56:11.072Z,73.70
2018-04-15T22:58:45.056Z,73.10
2018-04-15T23:01:14.803Z,74.90
2018-04-15T23:03:42.971Z,74.90
2018-04-15T23:06:11.157Z,76.00
2018-04-15T23:08:39.335Z,75.10
2018-04-15T23:11:08.311Z,73.80
2018-04-15T23:13:36.466Z,73.80
2018-04-15T23:16:04.660Z,74.10
2018-04-15T23:21:05.381Z,75.70
2018-04-15T23:23:33.543Z,76.50
2018-04-15T23:26:01.732Z,76.50
2018-04-15T23:28:29.943Z,76.40
2018-04-15T23:30:58.136Z,76.10
2018-04-15T23:33:26.386Z,76.50
2018-04-15T23:35:54.674Z,77.20
2018-04-15T23:38:22.948Z,78.30
2018-04-15T23:40:51.322Z,78.00
2018-04-15T23:43:19.474Z,78.50
2018-04-15T23:45:47.670Z,79.00
2018-04-15T23:48:15.841Z,78.80
2018-04-15T23:50:44.866Z,78.70
2018-04-15T23:53:13.125Z,78.70
2018-04-15T23:55:41.386Z,80.80
2018-04-15T23:58:09.547Z,81.70
